createdAt,value
2018-05-31T00:00:19.844Z,0
2018-05-31T00:01:19.734Z,0
2018-05-31T00:02:19.720Z,0
2018-05-31T00:03:19.790Z,0
2018-05-31T00:04:19.823Z,0
2018-05-31T00:05:19.904Z,0
2018-05-31T00:06:19.920Z,0
2018-05-31T00:07:19.819Z,0
2018-05-31T00:08:19.720Z,0
2018-05-31T00:09:19.737Z,0
2018-05-31T00:10:19.741Z,0
2018-05-31T00:11:19.746Z,0
2018-05-31T00:12:19.828Z,0
2018-05-31T00:13:20.797Z,0
2018-05-31T00:14:19.850Z,0
2018-05-31T00:15:19.785Z,0
2018-05-31T00:16:19.790Z,0
2018-05-31T00:17:19.860Z,0
2018-05-31T00:18:19.804Z,0
2018-05-31T00:19:19.924Z,0
2018-05-31T00:20:19.834Z,0
2018-05-31T00:21:19.843Z,0
2018-05-31T00:22:19.806Z,0
2018-05-31T00:23:19.809Z,0
2018-05-31T00:24:19.802Z,0
2018-05-31T00:25:19.799Z,0
2018-05-31T00:26:19.750Z,0
2018-05-31T00:27:19.832Z,0
2018-05-31T00:28:19.810Z,0
2018-05-31T00:29:19.798Z,0
2018-05-31T00:30:19.873Z,0
2018-05-31T00:31:19.815Z,0
2018-05-31T00:32:19.795Z,0
2018-05-31T00:33:19.894Z,0
2018-05-31T00:34:19.835Z,0
2018-05-31T00:35:19.848Z,0
2018-05-31T00:36:19.742Z,0
2018-05-31T00:37:19.869Z,0
2018-05-31T00:38:19.860Z,0
2018-05-31T00:39:19.874Z,0
2018-05-31T00:40:19.762Z,0
2018-05-31T00:41:19.840Z,0
2018-05-31T00:42:19.880Z,0
2018-05-31T00:43:19.785Z,0
2018-05-31T00:44:19.880Z,0
2018-05-31T00:45:19.770Z,0
2018-05-31T00:46:19.843Z,0
2018-05-31T00:47:19.815Z,0
2018-05-31T00:48:19.876Z,0
2018-05-31T00:49:19.847Z,0
2018-05-31T00:50:19.767Z,0
2018-05-31T00:51:19.892Z,0
2018-05-31T00:52:19.880Z,0
2018-05-31T00:53:19.848Z,0
2018-05-31T00:54:19.831Z,0
2018-05-31T00:55:19.849Z,0
2018-05-31T00:56:19.852Z,0
2018-05-31T00:57:19.815Z,0
2018-05-31T00:58:19.796Z,0
2018-05-31T00:59:19.890Z,0
2018-05-31T01:00:19.757Z,0
2018-05-31T01:01:19.796Z,0
2018-05-31T01:02:19.893Z,0
2018-05-31T01:03:19.782Z,0
2018-05-31T01:04:19.885Z,0
2018-05-31T01:05:19.861Z,0
2018-05-31T01:06:19.797Z,0
2018-05-31T01:07:19.880Z,0
2018-05-31T01:08:19.821Z,0
2018-05-31T01:09:19.801Z,0
2018-05-31T01:10:19.881Z,0
2018-05-31T01:11:19.843Z,0
2018-05-31T01:12:19.890Z,0
2018-05-31T01:13:19.883Z,0
2018-05-31T01:14:19.784Z,0
2018-05-31T01:15:19.903Z,0
2018-05-31T01:16:19.870Z,0
2018-05-31T01:17:19.790Z,0
2018-05-31T01:18:19.849Z,0
2018-05-31T01:19:19.824Z,0
2018-05-31T01:20:19.831Z,0
2018-05-31T01:21:19.770Z,0
2018-05-31T01:22:19.774Z,0
2018-05-31T01:23:19.808Z,0
2018-05-31T01:24:19.852Z,0
2018-05-31T01:25:19.811Z,0
2018-05-31T01:26:19.846Z,0
2018-05-31T01:27:19.869Z,0
2018-05-31T01:28:19.849Z,0
2018-05-31T01:29:19.880Z,0
2018-05-31T01:30:19.904Z,0
2018-05-31T01:31:19.794Z,0
2018-05-31T01:32:19.915Z,0
2018-05-31T01:33:19.904Z,0
2018-05-31T01:34:19.877Z,0
2018-05-31T01:35:19.895Z,0
2018-05-31T01:36:19.908Z,0
2018-05-31T01:37:19.902Z,0
2018-05-31T01:38:19.914Z,0
2018-05-31T01:39:19.859Z,0
2018-05-31T01:40:19.754Z,0
2018-05-31T01:41:19.775Z,0
2018-05-31T01:42:19.777Z,0
2018-05-31T01:43:19.783Z,0
2018-05-31T01:44:19.875Z,0
2018-05-31T01:45:19.781Z,0
2018-05-31T01:46:19.860Z,0
2018-05-31T01:47:19.826Z,0
2018-05-31T01:48:19.868Z,0
2018-05-31T01:49:19.778Z,0
2018-05-31T01:50:19.753Z,0
2018-05-31T01:51:19.703Z,0
2018-05-31T01:52:19.729Z,0
2018-05-31T01:53:19.765Z,0
2018-05-31T01:54:19.758Z,0
2018-05-31T01:55:19.710Z,0
2018-05-31T01:56:19.715Z,0
2018-05-31T01:57:19.740Z,0
2018-05-31T01:58:19.713Z,0
2018-05-31T01:59:19.732Z,0
2018-05-31T02:00:19.975Z,0
2018-05-31T02:01:19.888Z,0
2018-05-31T02:02:19.832Z,0
2018-05-31T02:03:19.892Z,0
2018-05-31T02:04:19.815Z,0
2018-05-31T02:05:19.815Z,0
2018-05-31T02:06:19.896Z,0
2018-05-31T02:07:19.821Z,0
2018-05-31T02:08:19.893Z,0
2018-05-31T02:09:19.819Z,0
2018-05-31T02:10:19.856Z,0
2018-05-31T02:11:19.801Z,0
2018-05-31T02:12:19.891Z,0
2018-05-31T02:13:19.836Z,0
2018-05-31T02:14:19.797Z,0
2018-05-31T02:15:19.886Z,0
2018-05-31T02:16:19.897Z,0
2018-05-31T02:17:19.808Z,0
2018-05-31T02:18:19.806Z,0
2018-05-31T02:19:19.803Z,0
2018-05-31T02:20:19.842Z,0
2018-05-31T02:21:19.920Z,0
2018-05-31T02:22:19.910Z,0
2018-05-31T02:23:19.968Z,0
2018-05-31T02:24:19.912Z,0
2018-05-31T02:25:19.916Z,0
2018-05-31T02:26:19.916Z,0
2018-05-31T02:27:19.919Z,0
2018-05-31T02:28:19.844Z,0
2018-05-31T02:29:19.922Z,0
2018-05-31T02:30:19.847Z,0
2018-05-31T02:31:19.892Z,0
2018-05-31T02:32:19.915Z,0
2018-05-31T02:33:19.947Z,0
2018-05-31T02:34:19.919Z,0
2018-05-31T02:35:19.893Z,0
2018-05-31T02:36:19.824Z,0
2018-05-31T02:37:19.919Z,0
2018-05-31T02:38:19.884Z,0
2018-05-31T02:39:19.951Z,0
2018-05-31T02:40:19.947Z,0
2018-05-31T02:41:19.922Z,0
2018-05-31T02:42:19.886Z,0
2018-05-31T02:43:19.881Z,0
2018-05-31T02:44:19.930Z,0
2018-05-31T02:45:19.903Z,0
2018-05-31T02:46:19.830Z,0
2018-05-31T02:47:19.886Z,0
2018-05-31T02:48:19.893Z,0
2018-05-31T02:49:19.944Z,0
2018-05-31T02:50:19.912Z,5
2018-05-31T02:51:19.813Z,5
2018-05-31T02:52:19.926Z,5
2018-05-31T02:53:19.934Z,5
2018-05-31T02:54:19.859Z,5
2018-05-31T02:55:19.861Z,11
2018-05-31T02:56:19.865Z,11
2018-05-31T02:57:19.864Z,11
2018-05-31T02:58:19.940Z,11
2018-05-31T02:59:19.938Z,16
2018-05-31T03:00:19.949Z,16
2018-05-31T03:01:19.896Z,16
2018-05-31T03:02:19.917Z,16
2018-05-31T03:03:19.855Z,16
2018-05-31T03:04:19.874Z,22
2018-05-31T03:05:19.943Z,22
2018-05-31T03:06:19.899Z,22
2018-05-31T03:07:19.877Z,22
2018-05-31T03:08:19.863Z,22
2018-05-31T03:09:19.939Z,28
2018-05-31T03:10:19.923Z,28
2018-05-31T03:11:19.849Z,28
2018-05-31T03:12:19.841Z,33
2018-05-31T03:13:19.904Z,33
2018-05-31T03:14:19.899Z,33
2018-05-31T03:15:19.848Z,39
2018-05-31T03:16:19.899Z,39
2018-05-31T03:17:19.938Z,45
2018-05-31T03:18:19.820Z,45
2018-05-31T03:19:19.882Z,50
2018-05-31T03:20:19.835Z,50
2018-05-31T03:21:19.882Z,56
2018-05-31T03:22:19.954Z,56
2018-05-31T03:23:19.884Z,61
2018-05-31T03:24:19.954Z,61
2018-05-31T03:25:19.882Z,67
2018-05-31T03:26:19.959Z,67
2018-05-31T03:27:19.895Z,73
2018-05-31T03:28:19.887Z,73
2018-05-31T03:29:19.958Z,73
2018-05-31T03:30:19.960Z,73
2018-05-31T03:31:19.913Z,73
2018-05-31T03:32:19.922Z,73
2018-05-31T03:33:19.865Z,78
2018-05-31T03:34:19.881Z,78
2018-05-31T03:35:19.874Z,84
2018-05-31T03:36:19.960Z,90
2018-05-31T03:37:19.956Z,101
2018-05-31T03:38:19.992Z,106
2018-05-31T03:39:19.976Z,118
2018-05-31T03:40:19.959Z,123
2018-05-31T03:41:19.896Z,123
2018-05-31T03:42:19.927Z,129
2018-05-31T03:43:19.964Z,135
2018-05-31T03:44:19.967Z,135
2018-05-31T03:45:19.966Z,140
2018-05-31T03:46:19.922Z,146
2018-05-31T03:47:19.911Z,151
2018-05-31T03:48:19.903Z,151
2018-05-31T03:49:19.901Z,157
2018-05-31T03:50:19.902Z,163
2018-05-31T03:51:19.947Z,168
2018-05-31T03:52:19.998Z,174
2018-05-31T03:53:19.934Z,180
2018-05-31T03:54:19.945Z,185
2018-05-31T03:55:19.940Z,191
2018-05-31T03:56:19.954Z,191
2018-05-31T03:57:19.874Z,196
2018-05-31T03:58:20.004Z,202
2018-05-31T03:59:19.893Z,213
2018-05-31T04:00:19.941Z,225
2018-05-31T04:01:19.974Z,241
2018-05-31T04:02:19.910Z,253
2018-05-31T04:03:19.978Z,258
2018-05-31T04:04:19.907Z,264
2018-05-31T04:05:19.911Z,270
2018-05-31T04:06:19.941Z,270
2018-05-31T04:07:19.909Z,275
2018-05-31T04:08:19.984Z,281
2018-05-31T04:09:19.909Z,281
2018-05-31T04:10:19.984Z,281
2018-05-31T04:11:19.996Z,281
2018-05-31T04:12:19.923Z,275
2018-05-31T04:13:19.952Z,275
2018-05-31T04:14:20.013Z,270
2018-05-31T04:15:20.009Z,270
2018-05-31T04:16:19.910Z,264
2018-05-31T04:17:20.021Z,264
2018-05-31T04:18:19.968Z,258
2018-05-31T04:19:19.910Z,247
2018-05-31T04:20:19.953Z,247
2018-05-31T04:21:19.951Z,258
2018-05-31T04:22:20.030Z,264
2018-05-31T04:23:20.024Z,275
2018-05-31T04:24:19.995Z,281
2018-05-31T04:25:19.954Z,298
2018-05-31T04:26:19.956Z,320
2018-05-31T04:27:20.007Z,331
2018-05-31T04:28:19.911Z,337
2018-05-31T04:29:20.019Z,343
2018-05-31T04:30:20.072Z,348
2018-05-31T04:31:19.985Z,354
2018-05-31T04:32:19.867Z,360
2018-05-31T04:33:19.930Z,354
2018-05-31T04:34:19.986Z,365
2018-05-31T04:35:19.957Z,371
2018-05-31T04:36:19.990Z,382
2018-05-31T04:37:19.929Z,388
2018-05-31T04:38:19.978Z,393
2018-05-31T04:39:19.975Z,405
2018-05-31T04:40:19.981Z,416
2018-05-31T04:41:20.002Z,421
2018-05-31T04:42:19.936Z,421
2018-05-31T04:43:20.008Z,416
2018-05-31T04:44:20.005Z,416
2018-05-31T04:45:20.006Z,421
2018-05-31T04:46:19.895Z,421
2018-05-31T04:47:20.006Z,427
2018-05-31T04:48:19.964Z,438
2018-05-31T04:49:20.011Z,450
2018-05-31T04:50:19.943Z,461
2018-05-31T04:51:19.942Z,472
2018-05-31T04:52:20.013Z,483
2018-05-31T04:53:20.028Z,489
2018-05-31T04:54:19.945Z,500
2018-05-31T04:55:20.014Z,506
2018-05-31T04:56:19.944Z,511
2018-05-31T04:57:19.947Z,517
2018-05-31T04:58:20.013Z,523
2018-05-31T04:59:20.012Z,534
2018-05-31T05:00:19.948Z,545
2018-05-31T05:01:19.918Z,551
2018-05-31T05:02:20.017Z,568
2018-05-31T05:03:19.982Z,579
2018-05-31T05:04:19.937Z,613
2018-05-31T05:05:20.043Z,624
2018-05-31T05:06:19.994Z,646
2018-05-31T05:07:19.987Z,652
2018-05-31T05:08:20.054Z,658
2018-05-31T05:09:19.940Z,663
2018-05-31T05:10:19.998Z,658
2018-05-31T05:11:20.054Z,663
2018-05-31T05:12:20.058Z,663
2018-05-31T05:13:20.025Z,652
2018-05-31T05:14:20.052Z,646
2018-05-31T05:15:19.985Z,652
2018-05-31T05:16:19.991Z,658
2018-05-31T05:17:19.929Z,652
2018-05-31T05:18:20.050Z,652
2018-05-31T05:19:20.056Z,680
2018-05-31T05:20:19.951Z,703
2018-05-31T05:21:19.965Z,725
2018-05-31T05:22:20.025Z,742
2018-05-31T05:23:19.948Z,748
2018-05-31T05:24:20.073Z,765
2018-05-31T05:25:19.965Z,759
2018-05-31T05:26:20.056Z,759
2018-05-31T05:27:20.057Z,765
2018-05-31T05:28:19.973Z,787
2018-05-31T05:29:19.989Z,810
2018-05-31T05:30:19.929Z,826
2018-05-31T05:31:19.966Z,849
2018-05-31T05:32:20.030Z,866
2018-05-31T05:33:19.968Z,860
2018-05-31T05:34:19.969Z,871
2018-05-31T05:35:20.043Z,860
2018-05-31T05:36:20.039Z,860
2018-05-31T05:37:19.968Z,883
2018-05-31T05:38:19.920Z,905
2018-05-31T05:39:20.060Z,945
2018-05-31T05:40:20.005Z,973
2018-05-31T05:41:20.080Z,967
2018-05-31T05:42:20.046Z,973
2018-05-31T05:43:20.038Z,990
2018-05-31T05:44:20.023Z,1001
2018-05-31T05:45:20.066Z,990
2018-05-31T05:46:20.062Z,990
2018-05-31T05:47:20.062Z,984
2018-05-31T05:48:20.023Z,961
2018-05-31T05:49:19.973Z,990
2018-05-31T05:50:20.074Z,1035
2018-05-31T05:51:20.028Z,1074
2018-05-31T05:52:19.953Z,1102
2018-05-31T05:53:20.025Z,1108
2018-05-31T05:54:20.025Z,1091
2018-05-31T05:55:19.968Z,1080
2018-05-31T05:56:20.059Z,1085
2018-05-31T05:57:20.089Z,1074
2018-05-31T05:58:20.049Z,1057
2018-05-31T05:59:20.011Z,1091
2018-05-31T06:00:20.051Z,1158
2018-05-31T06:01:20.080Z,1203
2018-05-31T06:02:20.073Z,1209
2018-05-31T06:03:20.096Z,1231
2018-05-31T06:04:20.094Z,1490
2018-05-31T06:05:19.959Z,2098
2018-05-31T06:06:20.023Z,2373
2018-05-31T06:07:20.055Z,2446
2018-05-31T06:08:20.042Z,2334
2018-05-31T06:09:20.085Z,3240
2018-05-31T06:10:20.004Z,2998
2018-05-31T06:11:19.991Z,2621
2018-05-31T06:12:19.948Z,2925
2018-05-31T06:13:19.961Z,2896
2018-05-31T06:14:20.072Z,2750
2018-05-31T06:15:19.994Z,2784
2018-05-31T06:16:20.062Z,2728
2018-05-31T06:17:20.000Z,2671
2018-05-31T06:18:20.003Z,2677
2018-05-31T06:19:20.070Z,2626
2018-05-31T06:20:20.084Z,2542
2018-05-31T06:21:20.102Z,2514
2018-05-31T06:22:20.042Z,2182
2018-05-31T06:23:19.988Z,1625
2018-05-31T06:24:19.973Z,2221
2018-05-31T06:25:20.107Z,2334
2018-05-31T06:26:20.132Z,2385
2018-05-31T06:27:20.072Z,2424
2018-05-31T06:28:19.973Z,2480
2018-05-31T06:29:20.079Z,2565
2018-05-31T06:30:20.095Z,2621
2018-05-31T06:31:19.967Z,2649
2018-05-31T06:32:20.030Z,2694
2018-05-31T06:33:20.011Z,2694
2018-05-31T06:34:20.023Z,2677
2018-05-31T06:35:20.078Z,2671
2018-05-31T06:36:20.012Z,2683
2018-05-31T06:37:20.083Z,2688
2018-05-31T06:38:20.010Z,2700
2018-05-31T06:39:20.009Z,2553
2018-05-31T06:40:20.082Z,2385
2018-05-31T06:41:20.018Z,2458
2018-05-31T06:42:20.083Z,2289
2018-05-31T06:43:20.024Z,2182
2018-05-31T06:44:20.084Z,2120
2018-05-31T06:45:20.013Z,2075
2018-05-31T06:46:20.087Z,2070
2018-05-31T06:47:20.014Z,2120
2018-05-31T06:48:20.085Z,2261
2018-05-31T06:49:20.085Z,2385
2018-05-31T06:50:20.018Z,2536
2018-05-31T06:51:20.086Z,2660
2018-05-31T06:52:20.073Z,2784
2018-05-31T06:53:20.064Z,2863
2018-05-31T06:54:20.195Z,2941
2018-05-31T06:55:20.085Z,2986
2018-05-31T06:56:20.089Z,3031
2018-05-31T06:57:20.154Z,3054
2018-05-31T06:58:20.110Z,3088
2018-05-31T06:59:20.129Z,3121
2018-05-31T07:00:20.131Z,3127
2018-05-31T07:01:20.119Z,3172
2018-05-31T07:02:20.097Z,3189
2018-05-31T07:03:20.135Z,3172
2018-05-31T07:04:20.064Z,3150
2018-05-31T07:05:20.020Z,3161
2018-05-31T07:06:20.125Z,3172
2018-05-31T07:07:20.096Z,3195
2018-05-31T07:08:20.064Z,3195
2018-05-31T07:09:20.063Z,3223
2018-05-31T07:10:20.136Z,3262
2018-05-31T07:11:20.122Z,3301
2018-05-31T07:12:20.103Z,3313
2018-05-31T07:13:20.159Z,3341
2018-05-31T07:14:20.012Z,3380
2018-05-31T07:15:20.038Z,3403
2018-05-31T07:16:20.078Z,3408
2018-05-31T07:17:20.102Z,3425
2018-05-31T07:18:20.104Z,3453
2018-05-31T07:19:20.131Z,3442
2018-05-31T07:20:20.145Z,3465
2018-05-31T07:21:20.113Z,3470
2018-05-31T07:22:20.111Z,3465
2018-05-31T07:23:20.039Z,3431
2018-05-31T07:24:20.115Z,3453
2018-05-31T07:25:20.112Z,3470
2018-05-31T07:26:20.041Z,3476
2018-05-31T07:27:20.130Z,3526
2018-05-31T07:28:20.116Z,3532
2018-05-31T07:29:20.044Z,3611
2018-05-31T07:30:20.116Z,3650
2018-05-31T07:31:20.019Z,3661
2018-05-31T07:32:20.056Z,3706
2018-05-31T07:33:19.986Z,3735
2018-05-31T07:34:20.055Z,3712
2018-05-31T07:35:20.016Z,3763
2018-05-31T07:36:20.081Z,3785
2018-05-31T07:37:20.011Z,3796
2018-05-31T07:38:20.093Z,3819
2018-05-31T07:39:20.013Z,3841
2018-05-31T07:40:20.049Z,3858
2018-05-31T07:41:20.056Z,3903
2018-05-31T07:42:20.089Z,3937
2018-05-31T07:43:20.101Z,3971
2018-05-31T07:44:20.189Z,3982
2018-05-31T07:45:20.153Z,3988
2018-05-31T07:46:20.183Z,4033
2018-05-31T07:47:20.127Z,4061
2018-05-31T07:48:20.092Z,4083
2018-05-31T07:49:20.096Z,4072
2018-05-31T07:50:20.127Z,4072
2018-05-31T07:51:20.097Z,4066
2018-05-31T07:52:20.123Z,4078
2018-05-31T07:53:20.070Z,4106
2018-05-31T07:54:20.165Z,4128
2018-05-31T07:55:20.050Z,4117
2018-05-31T07:56:20.095Z,4106
2018-05-31T07:57:20.151Z,4078
2018-05-31T07:58:20.107Z,4095
2018-05-31T07:59:20.145Z,4083
2018-05-31T08:00:20.048Z,4038
2018-05-31T08:01:20.155Z,4005
2018-05-31T08:02:20.096Z,4033
2018-05-31T08:03:20.099Z,4066
2018-05-31T08:04:20.125Z,4117
2018-05-31T08:05:20.017Z,4151
2018-05-31T08:06:20.014Z,4207
2018-05-31T08:07:20.126Z,4252
2018-05-31T08:08:20.087Z,4303
2018-05-31T08:09:20.019Z,4308
2018-05-31T08:10:20.131Z,4269
2018-05-31T08:11:20.166Z,4263
2018-05-31T08:12:20.084Z,4348
2018-05-31T08:13:20.171Z,4376
2018-05-31T08:14:20.100Z,4415
2018-05-31T08:15:20.067Z,4432
2018-05-31T08:16:20.106Z,4443
2018-05-31T08:17:20.099Z,4500
2018-05-31T08:18:20.069Z,4539
2018-05-31T08:19:20.138Z,4522
2018-05-31T08:20:20.142Z,4505
2018-05-31T08:21:20.086Z,4483
2018-05-31T08:22:20.077Z,4511
2018-05-31T08:23:20.081Z,4477
2018-05-31T08:24:20.148Z,4471
2018-05-31T08:25:20.151Z,4460
2018-05-31T08:26:20.147Z,4466
2018-05-31T08:27:20.083Z,4455
2018-05-31T08:28:20.090Z,4466
2018-05-31T08:29:20.086Z,4500
2018-05-31T08:30:20.088Z,4561
2018-05-31T08:31:20.135Z,4612
2018-05-31T08:32:20.153Z,4640
2018-05-31T08:33:20.092Z,4674
2018-05-31T08:34:20.186Z,4730
2018-05-31T08:35:20.159Z,4770
2018-05-31T08:36:20.084Z,4809
2018-05-31T08:37:20.158Z,4843
2018-05-31T08:38:20.098Z,4848
2018-05-31T08:39:20.158Z,4860
2018-05-31T08:40:20.094Z,4916
2018-05-31T08:41:20.158Z,4966
2018-05-31T08:42:20.066Z,5006
2018-05-31T08:43:20.060Z,4989
2018-05-31T08:44:20.106Z,4910
2018-05-31T08:45:20.016Z,4899
2018-05-31T08:46:20.022Z,4938
2018-05-31T08:47:20.063Z,4933
2018-05-31T08:48:20.063Z,4972
2018-05-31T08:49:20.113Z,4966
2018-05-31T08:50:20.179Z,4983
2018-05-31T08:51:20.115Z,5023
2018-05-31T08:52:20.165Z,5017
2018-05-31T08:53:20.186Z,5006
2018-05-31T08:54:20.128Z,4055
2018-05-31T08:55:20.144Z,4415
2018-05-31T08:56:20.185Z,4820
2018-05-31T08:57:20.159Z,4938
2018-05-31T08:58:20.200Z,4263
2018-05-31T08:59:20.129Z,3448
2018-05-31T09:00:20.153Z,4286
2018-05-31T09:01:20.075Z,4567
2018-05-31T09:02:20.132Z,5017
2018-05-31T09:03:20.071Z,4983
2018-05-31T09:04:20.138Z,4961
2018-05-31T09:05:20.150Z,4916
2018-05-31T09:06:20.213Z,5073
2018-05-31T09:07:20.136Z,5169
2018-05-31T09:08:20.010Z,5163
2018-05-31T09:09:20.146Z,5169
2018-05-31T09:10:20.155Z,5152
2018-05-31T09:11:20.151Z,5118
2018-05-31T09:12:20.153Z,5079
2018-05-31T09:13:20.176Z,5141
2018-05-31T09:14:20.117Z,4989
2018-05-31T09:15:20.211Z,5045
2018-05-31T09:16:20.158Z,5197
2018-05-31T09:17:20.214Z,5225
2018-05-31T09:18:20.083Z,5265
2018-05-31T09:19:20.212Z,5349
2018-05-31T09:20:20.219Z,5405
2018-05-31T09:21:20.091Z,5461
2018-05-31T09:22:20.182Z,5461
2018-05-31T09:23:20.116Z,5456
2018-05-31T09:24:20.182Z,5478
2018-05-31T09:25:20.173Z,5495
2018-05-31T09:26:20.188Z,5512
2018-05-31T09:27:20.125Z,5490
2018-05-31T09:28:20.187Z,5445
2018-05-31T09:29:20.126Z,5428
2018-05-31T09:30:20.195Z,5400
2018-05-31T09:31:20.194Z,5400
2018-05-31T09:32:20.122Z,5383
2018-05-31T09:33:20.197Z,5355
2018-05-31T09:34:20.195Z,5332
2018-05-31T09:35:20.125Z,5366
2018-05-31T09:36:20.215Z,5366
2018-05-31T09:37:20.197Z,5360
2018-05-31T09:38:20.130Z,5388
2018-05-31T09:39:20.194Z,5400
2018-05-31T09:40:20.127Z,5433
2018-05-31T09:41:20.132Z,5484
2018-05-31T09:42:20.238Z,5512
2018-05-31T09:43:20.118Z,5518
2018-05-31T09:44:20.239Z,5529
2018-05-31T09:45:20.236Z,5563
2018-05-31T09:46:20.205Z,5557
2018-05-31T09:47:20.182Z,5467
2018-05-31T09:48:20.201Z,5225
2018-05-31T09:49:20.228Z,5225
2018-05-31T09:50:20.112Z,5085
2018-05-31T09:51:20.246Z,5259
2018-05-31T09:52:20.184Z,5405
2018-05-31T09:53:20.146Z,5366
2018-05-31T09:54:20.187Z,5220
2018-05-31T09:55:20.205Z,5535
2018-05-31T09:56:20.239Z,5760
2018-05-31T09:57:20.210Z,5360
2018-05-31T09:58:20.292Z,5028
2018-05-31T09:59:20.250Z,4910
2018-05-31T10:00:20.151Z,5231
2018-05-31T10:01:20.119Z,5326
2018-05-31T10:02:20.110Z,5428
2018-05-31T10:03:20.207Z,5540
2018-05-31T10:04:20.173Z,5630
2018-05-31T10:05:20.115Z,5765
2018-05-31T10:06:20.251Z,5760
2018-05-31T10:07:20.248Z,5490
2018-05-31T10:08:20.140Z,5473
2018-05-31T10:09:20.192Z,5028
2018-05-31T10:10:20.191Z,5484
2018-05-31T10:11:20.114Z,5310
2018-05-31T10:12:20.172Z,5433
2018-05-31T10:13:20.138Z,5473
2018-05-31T10:14:20.220Z,5422
2018-05-31T10:15:20.192Z,5709
2018-05-31T10:16:20.222Z,5889
2018-05-31T10:17:20.192Z,5900
2018-05-31T10:18:20.245Z,5996
2018-05-31T10:19:20.183Z,5951
2018-05-31T10:20:20.263Z,5940
2018-05-31T10:21:20.241Z,5968
2018-05-31T10:22:20.079Z,5956
2018-05-31T10:23:20.088Z,5979
2018-05-31T10:24:20.081Z,5923
2018-05-31T10:25:20.132Z,5703
2018-05-31T10:26:20.172Z,5782
2018-05-31T10:27:20.133Z,5664
2018-05-31T10:28:20.174Z,5799
2018-05-31T10:29:20.175Z,5782
2018-05-31T10:30:20.176Z,5748
2018-05-31T10:31:20.086Z,5602
2018-05-31T10:32:20.234Z,5653
2018-05-31T10:33:20.169Z,5596
2018-05-31T10:34:20.235Z,5535
2018-05-31T10:35:20.271Z,5298
2018-05-31T10:36:20.235Z,5698
2018-05-31T10:37:20.168Z,5681
2018-05-31T10:38:20.166Z,5580
2018-05-31T10:39:20.238Z,5535
2018-05-31T10:40:20.170Z,5568
2018-05-31T10:41:20.168Z,5591
2018-05-31T10:42:20.238Z,5445
2018-05-31T10:43:20.265Z,5771
2018-05-31T10:44:20.244Z,5872
2018-05-31T10:45:20.240Z,3150
2018-05-31T10:46:20.303Z,2812
2018-05-31T10:47:20.269Z,2536
2018-05-31T10:48:20.219Z,5349
2018-05-31T10:49:20.150Z,5467
2018-05-31T10:50:20.268Z,5405
2018-05-31T10:51:20.212Z,5343
2018-05-31T10:52:20.205Z,5321
2018-05-31T10:53:20.224Z,5388
2018-05-31T10:54:20.246Z,5360
2018-05-31T10:55:20.248Z,5371
2018-05-31T10:56:20.219Z,5366
2018-05-31T10:57:20.214Z,5411
2018-05-31T10:58:20.171Z,5585
2018-05-31T10:59:20.349Z,5782
2018-05-31T11:00:20.272Z,5906
2018-05-31T11:01:20.221Z,5951
2018-05-31T11:02:20.184Z,5917
2018-05-31T11:03:20.255Z,5923
2018-05-31T11:04:20.187Z,5911
2018-05-31T11:05:20.258Z,5850
2018-05-31T11:06:20.242Z,5805
2018-05-31T11:07:20.259Z,5771
2018-05-31T11:08:20.191Z,5731
2018-05-31T11:09:20.192Z,5726
2018-05-31T11:10:20.261Z,5670
2018-05-31T11:11:20.260Z,5613
2018-05-31T11:12:20.155Z,5563
2018-05-31T11:13:20.276Z,5591
2018-05-31T11:14:20.223Z,5551
2018-05-31T11:15:20.285Z,5608
2018-05-31T11:16:20.225Z,5754
2018-05-31T11:17:20.164Z,5737
2018-05-31T11:18:20.260Z,5799
2018-05-31T11:19:20.223Z,5782
2018-05-31T11:20:20.220Z,5810
2018-05-31T11:21:20.260Z,5760
2018-05-31T11:22:20.199Z,5670
2018-05-31T11:23:20.264Z,5608
2018-05-31T11:24:20.267Z,5647
2018-05-31T11:25:20.271Z,5658
2018-05-31T11:26:20.304Z,5670
2018-05-31T11:27:20.200Z,5686
2018-05-31T11:28:20.280Z,5675
2018-05-31T11:29:20.305Z,5703
2018-05-31T11:30:20.204Z,5731
2018-05-31T11:31:20.274Z,5731
2018-05-31T11:32:20.215Z,5698
2018-05-31T11:33:20.239Z,5692
2018-05-31T11:34:20.253Z,5715
2018-05-31T11:35:20.182Z,5720
2018-05-31T11:36:20.250Z,5720
2018-05-31T11:37:20.295Z,5664
2018-05-31T11:38:20.237Z,5613
2018-05-31T11:39:20.313Z,5596
2018-05-31T11:40:20.248Z,5568
2018-05-31T11:41:20.278Z,5546
2018-05-31T11:42:20.223Z,5523
2018-05-31T11:43:20.225Z,5580
2018-05-31T11:44:20.134Z,5608
2018-05-31T11:45:20.136Z,5658
2018-05-31T11:46:20.228Z,5698
2018-05-31T11:47:20.228Z,5636
2018-05-31T11:48:20.136Z,5715
2018-05-31T11:49:20.141Z,5692
2018-05-31T11:50:20.180Z,5613
2018-05-31T11:51:20.143Z,5653
2018-05-31T11:52:20.172Z,5720
2018-05-31T11:53:20.280Z,5743
2018-05-31T11:54:20.163Z,5726
2018-05-31T11:55:20.187Z,5698
2018-05-31T11:56:20.308Z,5675
2018-05-31T11:57:20.196Z,5602
2018-05-31T11:58:20.195Z,5546
2018-05-31T11:59:20.231Z,5523
2018-05-31T12:00:20.273Z,5473
2018-05-31T12:01:20.296Z,5473
2018-05-31T12:02:20.292Z,5467
2018-05-31T12:03:20.292Z,5501
2018-05-31T12:04:20.293Z,5647
2018-05-31T12:05:20.226Z,5782
2018-05-31T12:06:20.229Z,5838
2018-05-31T12:07:20.228Z,5872
2018-05-31T12:08:20.257Z,5686
2018-05-31T12:09:20.314Z,5889
2018-05-31T12:10:20.229Z,5821
2018-05-31T12:11:20.201Z,5805
2018-05-31T12:12:20.286Z,5743
2018-05-31T12:13:20.165Z,5580
2018-05-31T12:14:20.202Z,5501
2018-05-31T12:15:20.167Z,5461
2018-05-31T12:16:20.207Z,5484
2018-05-31T12:17:20.268Z,5445
2018-05-31T12:18:20.306Z,5478
2018-05-31T12:19:20.291Z,5501
2018-05-31T12:20:20.293Z,5512
2018-05-31T12:21:20.288Z,5416
2018-05-31T12:22:20.329Z,5287
2018-05-31T12:23:20.302Z,5248
2018-05-31T12:24:20.215Z,5236
2018-05-31T12:25:20.299Z,5225
2018-05-31T12:26:20.338Z,5186
2018-05-31T12:27:20.343Z,5045
2018-05-31T12:28:20.275Z,5040
2018-05-31T12:29:20.269Z,5056
2018-05-31T12:30:20.337Z,5011
2018-05-31T12:31:20.337Z,4966
2018-05-31T12:32:20.271Z,4910
2018-05-31T12:33:20.203Z,4927
2018-05-31T12:34:20.185Z,4927
2018-05-31T12:35:20.269Z,4961
2018-05-31T12:36:20.247Z,5079
2018-05-31T12:37:20.303Z,5231
2018-05-31T12:38:20.274Z,5236
2018-05-31T12:39:20.186Z,5253
2018-05-31T12:40:20.245Z,5197
2018-05-31T12:41:20.253Z,5208
2018-05-31T12:42:20.292Z,5203
2018-05-31T12:43:20.277Z,5163
2018-05-31T12:44:20.257Z,5191
2018-05-31T12:45:20.290Z,5141
2018-05-31T12:46:20.299Z,5073
2018-05-31T12:47:20.355Z,5011
2018-05-31T12:48:20.296Z,5051
2018-05-31T12:49:20.366Z,5107
2018-05-31T12:50:20.351Z,5146
2018-05-31T12:51:20.359Z,5186
2018-05-31T12:52:20.234Z,5225
2018-05-31T12:53:20.367Z,5152
2018-05-31T12:54:20.290Z,5101
2018-05-31T12:55:20.302Z,5073
2018-05-31T12:56:20.360Z,5079
2018-05-31T12:57:20.366Z,5073
2018-05-31T12:58:20.355Z,5017
2018-05-31T12:59:20.268Z,4905
2018-05-31T13:00:20.332Z,4882
2018-05-31T13:01:20.355Z,4876
2018-05-31T13:02:20.268Z,4764
2018-05-31T13:03:20.250Z,4342
2018-05-31T13:04:20.321Z,3082
2018-05-31T13:05:20.330Z,2688
2018-05-31T13:06:20.268Z,4702
2018-05-31T13:07:20.335Z,4860
2018-05-31T13:08:20.295Z,4905
2018-05-31T13:09:20.245Z,4584
2018-05-31T13:10:20.323Z,4815
2018-05-31T13:11:20.244Z,4764
2018-05-31T13:12:20.297Z,4770
2018-05-31T13:13:20.379Z,4893
2018-05-31T13:14:20.369Z,5124
2018-05-31T13:15:20.358Z,5180
2018-05-31T13:16:20.358Z,5236
2018-05-31T13:17:20.336Z,5130
2018-05-31T13:18:20.274Z,5051
2018-05-31T13:19:20.358Z,4972
2018-05-31T13:20:20.306Z,4927
2018-05-31T13:21:20.304Z,4815
2018-05-31T13:22:20.307Z,4646
2018-05-31T13:23:20.280Z,4550
2018-05-31T13:24:20.348Z,4545
2018-05-31T13:25:20.401Z,4511
2018-05-31T13:26:20.347Z,4477
2018-05-31T13:27:20.281Z,4511
2018-05-31T13:28:20.355Z,4556
2018-05-31T13:29:20.281Z,4680
2018-05-31T13:30:20.287Z,4764
2018-05-31T13:31:20.282Z,4770
2018-05-31T13:32:20.234Z,4730
2018-05-31T13:33:20.419Z,4719
2018-05-31T13:34:20.371Z,4702
2018-05-31T13:35:20.382Z,4651
2018-05-31T13:36:20.322Z,4533
2018-05-31T13:37:20.392Z,4353
2018-05-31T13:38:20.250Z,4235
2018-05-31T13:39:20.290Z,4280
2018-05-31T13:40:20.264Z,4353
2018-05-31T13:41:20.327Z,4460
2018-05-31T13:42:20.401Z,4483
2018-05-31T13:43:20.258Z,4455